createdAt,value
2023-05-02T00:00:23.164Z,12.01
2023-05-02T00:01:25.337Z,12.03
2023-05-02T00:02:27.618Z,12.01
2023-05-02T00:03:29.958Z,12.02
2023-05-02T00:04:32.525Z,11.99
2023-05-02T00:05:35.101Z,11.92
2023-05-02T00:06:37.537Z,11.88
2023-05-02T00:07:39.718Z,11.86
2023-05-02T00:08:41.953Z,11.82
2023-05-02T00:09:44.127Z,11.82
2023-05-02T00:10:46.971Z,11.80
2023-05-02T00:11:49.175Z,11.73
2023-05-02T00:12:51.356Z,11.63
2023-05-02T00:13:53.472Z,11.67
2023-05-02T00:14:55.707Z,11.59
2023-05-02T00:15:57.870Z,11.63
2023-05-02T00:17:00.147Z,11.70
2023-05-02T00:18:02.371Z,11.70
2023-05-02T00:19:04.670Z,11.73
2023-05-02T00:20:09.333Z,11.71
2023-05-02T00:21:11.490Z,11.67
2023-05-02T00:22:13.728Z,11.66
2023-05-02T00:23:15.878Z,11.70
2023-05-02T00:24:18.564Z,11.69
2023-05-02T00:25:21.200Z,11.68
2023-05-02T00:26:23.892Z,11.71
2023-05-02T00:27:26.510Z,11.67
2023-05-02T00:28:28.918Z,11.68
2023-05-02T00:29:31.045Z,11.67
2023-05-02T00:30:33.235Z,11.60
2023-05-02T00:31:36.321Z,11.56
2023-05-02T00:32:38.945Z,11.63
2023-05-02T00:33:41.254Z,11.59
2023-05-02T00:34:43.435Z,11.58
2023-05-02T00:35:45.649Z,11.59
2023-05-02T00:36:48.327Z,11.63
2023-05-02T00:37:50.544Z,11.57
2023-05-02T00:38:52.744Z,11.58
2023-05-02T00:39:55.260Z,11.57
2023-05-02T00:40:57.810Z,11.46
2023-05-02T00:42:00.248Z,11.48
2023-05-02T00:43:02.462Z,11.44
2023-05-02T00:44:04.745Z,11.40
2023-05-02T00:45:07.349Z,11.42
2023-05-02T00:46:22.300Z,11.64
2023-05-02T00:47:24.665Z,11.45
2023-05-02T00:48:27.028Z,11.39
2023-05-02T00:49:31.139Z,11.39
2023-05-02T00:50:34.447Z,11.52
2023-05-02T00:51:36.578Z,11.50
2023-05-02T00:52:38.759Z,11.53
2023-05-02T00:53:41.769Z,11.60
2023-05-02T00:54:44.002Z,11.56
2023-05-02T00:55:46.757Z,11.46
2023-05-02T00:56:48.990Z,11.43
2023-05-02T00:57:51.298Z,11.39
2023-05-02T00:58:54.440Z,11.32
2023-05-02T00:59:57.360Z,11.31
2023-05-02T01:00:59.835Z,11.27
2023-05-02T01:02:23.926Z,11.36
2023-05-02T01:03:47.908Z,11.36
2023-05-02T01:05:14.119Z,11.30
2023-05-02T01:06:36.963Z,11.10
2023-05-02T01:07:44.875Z,11.31
2023-05-02T01:09:00.560Z,11.25
2023-05-02T01:10:23.907Z,11.29
2023-05-02T01:11:35.671Z,11.12
2023-05-02T01:12:54.713Z,11.33
2023-05-02T01:14:00.572Z,11.25
2023-05-02T01:15:06.332Z,11.22
2023-05-02T01:16:11.928Z,11.20
2023-05-02T01:17:17.168Z,11.19
2023-05-02T01:18:25.121Z,11.25
2023-05-02T01:19:34.310Z,11.25
2023-05-02T01:20:41.857Z,11.26
2023-05-02T01:21:44.626Z,11.11
2023-05-02T01:22:48.148Z,11.18
2023-05-02T01:24:06.996Z,11.28
2023-05-02T01:25:42.424Z,11.35
2023-05-02T01:27:14.715Z,11.20
2023-05-02T01:28:31.686Z,11.11
2023-05-02T01:29:36.045Z,11.00
2023-05-02T01:30:43.262Z,11.06
2023-05-02T01:31:50.492Z,11.03
2023-05-02T01:32:55.358Z,11.03
2023-05-02T01:34:00.033Z,11.05
2023-05-02T01:35:03.132Z,10.93
2023-05-02T01:36:07.556Z,10.95
2023-05-02T01:37:12.549Z,10.94
2023-05-02T01:38:16.744Z,10.84
2023-05-02T01:39:25.489Z,10.94
2023-05-02T01:40:28.828Z,10.75
2023-05-02T01:41:32.869Z,10.81
2023-05-02T01:42:37.271Z,10.78
2023-05-02T01:43:41.522Z,10.68
2023-05-02T01:44:48.169Z,10.71
2023-05-02T01:45:53.186Z,10.63
2023-05-02T01:46:56.818Z,10.50
2023-05-02T01:48:01.803Z,10.56
2023-05-02T01:49:08.110Z,10.54
2023-05-02T01:50:16.751Z,10.51
2023-05-02T01:51:21.387Z,10.38
2023-05-02T01:52:25.272Z,10.34
2023-05-02T01:53:30.247Z,10.28
2023-05-02T01:54:35.350Z,10.23
2023-05-02T01:55:39.434Z,10.17
2023-05-02T01:56:43.701Z,10.13
2023-05-02T01:57:48.675Z,10.12
2023-05-02T01:58:54.310Z,10.05
2023-05-02T01:59:58.465Z,10.01
2023-05-02T02:01:02.012Z,9.99
2023-05-02T02:02:07.080Z,10.02
2023-05-02T02:03:10.555Z,9.86
2023-05-02T02:04:16.056Z,9.85
2023-05-02T02:05:20.325Z,9.79
2023-05-02T02:06:22.712Z,9.62
2023-05-02T02:07:25.013Z,9.61
2023-05-02T02:08:27.212Z,9.53
2023-05-02T02:09:30.857Z,9.53
2023-05-02T02:10:41.579Z,9.60
2023-05-02T02:11:49.330Z,9.50
2023-05-02T02:12:54.552Z,9.62
2023-05-02T02:14:05.042Z,9.66
2023-05-02T02:15:17.036Z,9.58
2023-05-02T02:16:25.414Z,9.56
2023-05-02T02:17:37.908Z,9.57
2023-05-02T02:18:40.316Z,9.42
2023-05-02T02:19:45.758Z,9.48
2023-05-02T02:20:50.108Z,9.45
2023-05-02T02:21:55.768Z,9.54
2023-05-02T02:23:00.714Z,9.53
2023-05-02T02:24:05.599Z,9.41
2023-05-02T02:25:11.792Z,9.43
2023-05-02T02:26:15.521Z,9.39
2023-05-02T02:27:17.775Z,9.36
2023-05-02T02:28:20.110Z,9.32
2023-05-02T02:29:22.340Z,9.33
2023-05-02T02:30:24.568Z,9.30
2023-05-02T02:31:35.732Z,9.50
2023-05-02T02:32:38.008Z,9.32
2023-05-02T02:33:40.686Z,9.32
2023-05-02T02:34:43.153Z,9.26
2023-05-02T02:35:52.806Z,9.41
2023-05-02T02:37:08.810Z,9.48
2023-05-02T02:38:44.865Z,9.59
2023-05-02T02:40:00.640Z,9.26
2023-05-02T02:41:36.404Z,9.44
2023-05-02T02:42:47.412Z,9.18
2023-05-02T02:43:55.322Z,9.27
2023-05-02T02:45:19.461Z,9.34
2023-05-02T02:46:31.670Z,9.34
2023-05-02T02:47:43.972Z,9.32
2023-05-02T02:49:10.003Z,9.35
2023-05-02T02:50:23.153Z,9.24
2023-05-02T02:51:37.957Z,9.28
2023-05-02T02:52:49.113Z,9.21
2023-05-02T02:54:15.481Z,9.22
2023-05-02T02:55:29.656Z,9.18
2023-05-02T02:56:47.864Z,9.19
2023-05-02T02:58:02.050Z,9.29
2023-05-02T02:59:13.128Z,9.28
2023-05-02T03:00:22.327Z,9.26
2023-05-02T03:01:28.015Z,9.18
2023-05-02T03:02:32.786Z,9.16
2023-05-02T03:03:36.518Z,9.11
2023-05-02T03:04:44.629Z,9.17
2023-05-02T03:05:47.637Z,9.12
2023-05-02T03:06:50.704Z,9.08
2023-05-02T03:07:53.452Z,9.07
2023-05-02T03:08:58.686Z,8.98
2023-05-02T03:10:05.838Z,9.00
2023-05-02T03:11:10.023Z,9.04
2023-05-02T03:12:12.860Z,8.98
2023-05-02T03:13:15.700Z,8.96
2023-05-02T03:14:17.892Z,8.97
2023-05-02T03:15:41.801Z,9.15
2023-05-02T03:16:45.411Z,8.90
2023-05-02T03:17:50.555Z,8.93
2023-05-02T03:18:52.799Z,8.90
2023-05-02T03:19:55.306Z,8.88
2023-05-02T03:20:57.974Z,8.85
2023-05-02T03:22:00.385Z,8.86
2023-05-02T03:23:02.533Z,8.78
2023-05-02T03:24:05.105Z,8.84
2023-05-02T03:25:07.763Z,8.74
2023-05-02T03:26:10.845Z,8.73
2023-05-02T03:27:13.107Z,8.68
2023-05-02T03:28:17.551Z,8.62
2023-05-02T03:29:22.769Z,8.67
2023-05-02T03:30:24.915Z,8.64
2023-05-02T03:31:27.241Z,8.59
2023-05-02T03:32:29.689Z,8.62
2023-05-02T03:33:32.675Z,8.57
2023-05-02T03:34:34.888Z,8.65
2023-05-02T03:35:37.066Z,8.67
2023-05-02T03:36:39.344Z,8.65
2023-05-02T03:37:42.108Z,8.61
2023-05-02T03:38:44.462Z,8.58
2023-05-02T03:39:48.201Z,8.60
2023-05-02T03:40:50.391Z,8.58
2023-05-02T03:41:53.208Z,8.48
2023-05-02T03:42:58.388Z,8.51
2023-05-02T03:44:05.636Z,8.57
2023-05-02T03:45:08.744Z,8.56
2023-05-02T03:46:11.923Z,8.49
2023-05-02T03:47:17.787Z,8.56
2023-05-02T03:48:20.298Z,8.50
2023-05-02T03:49:22.520Z,8.50
2023-05-02T03:50:27.618Z,8.48
2023-05-02T03:51:30.895Z,8.49
2023-05-02T03:52:34.277Z,8.43
2023-05-02T03:53:37.350Z,8.47
2023-05-02T03:54:39.646Z,8.51
2023-05-02T03:55:44.633Z,8.70
2023-05-02T03:56:55.925Z,8.67
2023-05-02T03:58:03.594Z,8.55
2023-05-02T03:59:05.821Z,8.54
2023-05-02T04:00:08.550Z,8.56
2023-05-02T04:01:23.973Z,8.56
2023-05-02T04:02:27.102Z,8.55
2023-05-02T04:03:30.209Z,8.47
2023-05-02T04:04:34.436Z,8.47
2023-05-02T04:05:37.015Z,8.55
2023-05-02T04:06:39.689Z,8.57
2023-05-02T04:07:43.798Z,8.57
2023-05-02T04:08:46.384Z,8.58
2023-05-02T04:09:48.799Z,8.61
2023-05-02T04:10:52.359Z,8.57
2023-05-02T04:11:54.677Z,8.56
2023-05-02T04:12:56.950Z,8.51
2023-05-02T04:13:59.099Z,8.60
2023-05-02T04:15:01.226Z,8.65
2023-05-02T04:16:05.555Z,8.62
2023-05-02T04:17:10.484Z,8.65
2023-05-02T04:18:20.502Z,8.62
2023-05-02T04:19:22.773Z,8.59
2023-05-02T04:20:24.993Z,8.61
2023-05-02T04:21:29.168Z,8.66
2023-05-02T04:22:33.079Z,8.68
2023-05-02T04:23:39.018Z,8.59
2023-05-02T04:24:41.422Z,8.59
2023-05-02T04:25:52.083Z,8.73
2023-05-02T04:26:54.537Z,8.83
2023-05-02T04:27:56.679Z,8.65
2023-05-02T04:29:00.670Z,8.67
2023-05-02T04:30:03.346Z,8.62
2023-05-02T04:31:05.974Z,8.69
2023-05-02T04:32:08.521Z,8.66
2023-05-02T04:33:12.011Z,8.62
2023-05-02T04:34:14.253Z,8.66
2023-05-02T04:35:19.730Z,8.59
2023-05-02T04:36:22.194Z,8.53
2023-05-02T04:37:25.758Z,8.52
2023-05-02T04:38:27.945Z,8.57
2023-05-02T04:39:30.071Z,8.60
2023-05-02T04:40:42.147Z,8.59
2023-05-02T04:41:44.708Z,8.60
2023-05-02T04:42:46.852Z,8.52
2023-05-02T04:43:52.406Z,8.58
2023-05-02T04:44:54.608Z,8.58
2023-05-02T04:45:58.726Z,8.53
2023-05-02T04:47:04.739Z,8.60
2023-05-02T04:48:07.092Z,8.58
2023-05-02T04:49:10.328Z,8.57
2023-05-02T04:50:12.499Z,8.57
2023-05-02T04:51:16.921Z,8.59
2023-05-02T04:52:21.213Z,8.53
2023-05-02T04:53:23.942Z,8.56
2023-05-02T04:54:26.704Z,8.53
2023-05-02T04:55:28.927Z,8.50
2023-05-02T04:56:31.079Z,8.54
2023-05-02T04:57:33.293Z,8.57
2023-05-02T04:58:36.656Z,8.57
2023-05-02T04:59:42.561Z,8.56
2023-05-02T05:00:44.746Z,8.56
2023-05-02T05:01:47.070Z,8.58
2023-05-02T05:02:49.347Z,8.57
2023-05-02T05:03:51.844Z,8.54
2023-05-02T05:04:54.421Z,8.54
2023-05-02T05:05:57.198Z,8.58
2023-05-02T05:07:01.526Z,8.58
2023-05-02T05:08:04.667Z,8.50
2023-05-02T05:09:09.861Z,8.53
2023-05-02T05:10:12.423Z,8.45
2023-05-02T05:11:20.855Z,8.49
2023-05-02T05:12:23.395Z,8.52
2023-05-02T05:13:25.881Z,8.52
2023-05-02T05:14:28.751Z,8.46
2023-05-02T05:15:31.817Z,8.45
2023-05-02T05:16:37.473Z,8.33
2023-05-02T05:17:39.841Z,8.35
2023-05-02T05:18:43.031Z,8.40
2023-05-02T05:19:47.792Z,8.45
2023-05-02T05:20:49.951Z,8.39
2023-05-02T05:21:52.339Z,8.38
2023-05-02T05:22:55.980Z,8.39
2023-05-02T05:23:58.411Z,8.47
2023-05-02T05:25:03.960Z,8.40
2023-05-02T05:26:15.537Z,8.57
2023-05-02T05:27:21.457Z,8.48
2023-05-02T05:28:23.913Z,8.41
2023-05-02T05:29:26.321Z,8.48
2023-05-02T05:30:30.996Z,8.46
2023-05-02T05:31:34.134Z,8.54
2023-05-02T05:32:37.069Z,8.47
2023-05-02T05:33:39.974Z,8.58
2023-05-02T05:34:43.826Z,8.51
2023-05-02T05:35:46.348Z,8.45
2023-05-02T05:36:48.970Z,8.40
2023-05-02T05:37:51.895Z,8.40
2023-05-02T05:38:54.120Z,8.43
2023-05-02T05:39:56.283Z,8.41
2023-05-02T05:40:58.470Z,8.36
2023-05-02T05:42:01.466Z,8.30
2023-05-02T05:43:05.294Z,8.31
2023-05-02T05:44:11.543Z,8.20
2023-05-02T05:45:14.862Z,8.20
2023-05-02T05:46:17.749Z,8.24
2023-05-02T05:47:22.821Z,8.26
2023-05-02T05:48:26.604Z,8.16
2023-05-02T05:49:29.465Z,8.17
2023-05-02T05:50:31.639Z,8.19
2023-05-02T05:51:33.853Z,8.25
2023-05-02T05:52:37.493Z,8.20
2023-05-02T05:53:39.725Z,8.21
2023-05-02T05:54:44.880Z,8.24
2023-05-02T05:55:47.398Z,8.26
2023-05-02T05:56:49.708Z,8.36
2023-05-02T05:57:54.500Z,8.38
2023-05-02T05:58:56.748Z,8.40
2023-05-02T05:59:59.293Z,8.38
2023-05-02T06:01:02.255Z,8.43
2023-05-02T06:02:05.573Z,8.40
2023-05-02T06:03:09.549Z,8.51
2023-05-02T06:04:12.404Z,8.50
2023-05-02T06:05:17.573Z,8.42
2023-05-02T06:06:19.889Z,8.30
2023-05-02T06:07:22.321Z,8.31
2023-05-02T06:08:24.583Z,8.36
2023-05-02T06:09:27.044Z,8.28
2023-05-02T06:10:31.126Z,8.50
2023-05-02T06:11:33.362Z,8.49
2023-05-02T06:12:36.482Z,8.50
2023-05-02T06:13:38.793Z,8.53
2023-05-02T06:14:42.418Z,8.53
2023-05-02T06:15:44.933Z,8.48
2023-05-02T06:16:47.157Z,8.50
2023-05-02T06:17:51.687Z,8.63
2023-05-02T06:18:53.959Z,8.55
2023-05-02T06:19:56.162Z,8.54
2023-05-02T06:20:58.390Z,8.56
2023-05-02T06:22:00.645Z,8.55
2023-05-02T06:23:02.939Z,8.52
2023-05-02T06:24:05.356Z,8.53
2023-05-02T06:25:08.838Z,8.58
2023-05-02T06:26:11.141Z,8.62
2023-05-02T06:27:13.289Z,8.62
2023-05-02T06:28:15.432Z,8.61
2023-05-02T06:29:17.546Z,8.68
2023-05-02T06:30:19.690Z,8.66
2023-05-02T06:31:21.819Z,8.76
2023-05-02T06:32:24.067Z,8.79
2023-05-02T06:33:26.255Z,8.85
2023-05-02T06:34:28.590Z,8.90
2023-05-02T06:35:30.764Z,8.84
2023-05-02T06:36:32.976Z,8.85
2023-05-02T06:37:35.715Z,8.93
2023-05-02T06:38:37.873Z,8.86
2023-05-02T06:39:40.087Z,8.81
2023-05-02T06:40:45.267Z,8.91
2023-05-02T06:41:48.535Z,9.00
2023-05-02T06:42:52.725Z,8.99
2023-05-02T06:43:54.937Z,8.97
2023-05-02T06:44:57.078Z,9.11
2023-05-02T06:45:59.380Z,9.01
2023-05-02T06:47:01.624Z,9.03
2023-05-02T06:48:04.107Z,9.07
2023-05-02T06:49:06.378Z,9.11
2023-05-02T06:50:09.091Z,9.15
2023-05-02T06:51:11.333Z,9.11
2023-05-02T06:52:13.463Z,9.16
2023-05-02T06:53:16.329Z,9.20
2023-05-02T06:54:18.506Z,9.26
2023-05-02T06:55:21.270Z,9.33
2023-05-02T06:56:25.722Z,9.44
2023-05-02T06:57:27.957Z,9.54
2023-05-02T06:58:30.302Z,9.49
2023-05-02T06:59:32.420Z,9.50
2023-05-02T07:00:34.625Z,9.61
2023-05-02T07:01:36.988Z,9.69
2023-05-02T07:02:39.275Z,9.64
2023-05-02T07:03:41.450Z,9.79
2023-05-02T07:04:43.747Z,9.83
2023-05-02T07:05:46.048Z,9.78
2023-05-02T07:06:48.456Z,9.91
2023-05-02T07:07:50.819Z,9.80
2023-05-02T07:08:53.012Z,9.87
2023-05-02T07:09:55.168Z,9.86
2023-05-02T07:10:57.358Z,9.90
2023-05-02T07:11:59.480Z,9.81
2023-05-02T07:13:01.594Z,9.72
2023-05-02T07:14:03.733Z,9.73
2023-05-02T07:15:07.249Z,9.72
2023-05-02T07:16:09.568Z,9.70
2023-05-02T07:17:11.798Z,9.73
2023-05-02T07:18:14.197Z,9.67
2023-05-02T07:19:16.665Z,9.75
2023-05-02T07:20:19.953Z,9.74
2023-05-02T07:21:22.087Z,9.79
2023-05-02T07:22:24.243Z,9.74
2023-05-02T07:23:26.381Z,9.80
2023-05-02T07:24:28.556Z,9.86
2023-05-02T07:25:30.715Z,9.96
2023-05-02T07:26:32.934Z,9.99
2023-05-02T07:27:35.105Z,10.04
2023-05-02T07:28:37.226Z,10.12
2023-05-02T07:29:39.983Z,10.04
2023-05-02T07:30:42.386Z,10.09
2023-05-02T07:31:44.528Z,10.21
2023-05-02T07:32:46.822Z,10.22
2023-05-02T07:33:48.968Z,10.36
2023-05-02T07:34:54.116Z,10.44
2023-05-02T07:35:56.784Z,10.62
2023-05-02T07:36:58.973Z,10.75
2023-05-02T07:38:01.141Z,10.87
2023-05-02T07:39:03.363Z,10.97
2023-05-02T07:40:07.384Z,11.16
2023-05-02T07:41:09.546Z,11.36
2023-05-02T07:42:11.687Z,11.45
2023-05-02T07:43:14.274Z,11.74
2023-05-02T07:44:16.438Z,11.83
2023-05-02T07:45:18.983Z,12.07
2023-05-02T07:46:21.651Z,12.27
2023-05-02T07:47:23.855Z,12.16
2023-05-02T07:48:27.798Z,12.21
2023-05-02T07:49:31.371Z,12.39
2023-05-02T07:50:33.542Z,12.46
2023-05-02T07:51:35.803Z,12.83
2023-05-02T07:52:38.024Z,12.87
2023-05-02T07:53:40.164Z,12.94
2023-05-02T07:54:42.504Z,13.02
2023-05-02T07:55:44.718Z,13.05
2023-05-02T07:56:49.965Z,13.02
2023-05-02T07:57:52.846Z,13.12
2023-05-02T07:58:55.115Z,12.80
2023-05-02T07:59:57.533Z,12.91
2023-05-02T08:00:59.804Z,12.54
2023-05-02T08:02:03.084Z,12.80
2023-05-02T08:03:06.051Z,12.60
2023-05-02T08:04:11.688Z,12.57
2023-05-02T08:05:14.075Z,12.50
2023-05-02T08:06:16.488Z,12.32
2023-05-02T08:07:18.746Z,12.45
2023-05-02T08:08:20.926Z,12.33
2023-05-02T08:09:23.232Z,12.12
2023-05-02T08:10:25.640Z,11.99
2023-05-02T08:11:27.877Z,11.67
2023-05-02T08:12:30.035Z,11.30
2023-05-02T08:13:32.208Z,11.50
2023-05-02T08:14:34.444Z,11.51
2023-05-02T08:15:36.610Z,11.21
2023-05-02T08:16:39.008Z,11.20
2023-05-02T08:17:41.421Z,11.42
2023-05-02T08:18:43.700Z,11.37
2023-05-02T08:19:45.868Z,11.29
2023-05-02T08:20:48.405Z,11.40
2023-05-02T08:21:50.786Z,11.64
2023-05-02T08:22:52.968Z,11.49
2023-05-02T08:23:58.361Z,11.97
2023-05-02T08:25:00.606Z,12.99
2023-05-02T08:26:02.809Z,13.83
2023-05-02T08:27:05.065Z,14.46
2023-05-02T08:28:07.247Z,15.35
2023-05-02T08:29:11.552Z,15.49
2023-05-02T08:30:14.154Z,15.72
2023-05-02T08:31:16.451Z,15.73
2023-05-02T08:32:18.725Z,15.34
2023-05-02T08:33:21.091Z,15.39
2023-05-02T08:34:23.282Z,15.07
2023-05-02T08:35:25.533Z,14.87
2023-05-02T08:36:28.798Z,14.47
2023-05-02T08:37:32.114Z,14.12
2023-05-02T08:38:34.258Z,14.07
2023-05-02T08:39:36.400Z,13.48
2023-05-02T08:40:42.687Z,13.44
2023-05-02T08:41:45.597Z,13.00
2023-05-02T08:42:48.040Z,12.96
2023-05-02T08:43:50.344Z,12.99
2023-05-02T08:44:52.694Z,12.32
2023-05-02T08:45:59.823Z,12.34
2023-05-02T08:47:03.267Z,12.13
2023-05-02T08:48:10.968Z,11.85
2023-05-02T08:49:15.686Z,11.68
2023-05-02T08:50:18.882Z,11.55
2023-05-02T08:51:22.661Z,11.68
2023-05-02T08:52:26.168Z,11.41
2023-05-02T08:53:29.442Z,11.51
2023-05-02T08:54:32.011Z,11.44
2023-05-02T08:55:36.456Z,11.61
2023-05-02T08:56:38.993Z,11.66
2023-05-02T08:57:43.397Z,11.70
2023-05-02T08:58:45.720Z,11.86
2023-05-02T08:59:48.675Z,12.10
2023-05-02T09:00:52.449Z,13.36
2023-05-02T09:01:59.459Z,14.42
2023-05-02T09:03:23.991Z,15.41
2023-05-02T09:04:30.887Z,15.33
2023-05-02T09:05:40.598Z,15.85
2023-05-02T09:06:42.838Z,15.94
2023-05-02T09:07:47.659Z,15.88
2023-05-02T09:08:52.416Z,15.84
2023-05-02T09:09:55.010Z,15.69
2023-05-02T09:10:57.834Z,15.61
2023-05-02T09:12:00.153Z,15.50
2023-05-02T09:13:31.234Z,15.40
2023-05-02T09:14:33.362Z,15.22
2023-05-02T09:15:35.697Z,15.27
2023-05-02T09:16:39.931Z,15.03
2023-05-02T09:17:44.163Z,15.24
2023-05-02T09:18:48.279Z,14.97
2023-05-02T09:20:00.625Z,14.92
2023-05-02T09:21:18.050Z,14.97
2023-05-02T09:22:25.709Z,14.96
2023-05-02T09:23:35.208Z,15.04
2023-05-02T09:24:38.485Z,14.56
2023-05-02T09:25:40.653Z,14.61
2023-05-02T09:26:45.315Z,14.59
2023-05-02T09:27:55.191Z,14.24
2023-05-02T09:28:58.137Z,14.07
2023-05-02T09:30:20.350Z,13.80
2023-05-02T09:31:49.792Z,13.66
2023-05-02T09:32:56.829Z,13.45
2023-05-02T09:34:08.668Z,13.30
2023-05-02T09:35:11.286Z,12.94
2023-05-02T09:36:16.310Z,13.12
2023-05-02T09:37:34.333Z,13.05
2023-05-02T09:38:36.616Z,12.96
2023-05-02T09:39:38.725Z,13.00
2023-05-02T09:40:54.453Z,13.11
2023-05-02T09:41:57.684Z,13.43
2023-05-02T09:42:59.854Z,14.57
2023-05-02T09:44:02.134Z,15.68
2023-05-02T09:45:04.666Z,16.80
2023-05-02T09:46:09.160Z,17.81
2023-05-02T09:47:24.371Z,18.63
2023-05-02T09:48:28.068Z,19.34
2023-05-02T09:49:47.159Z,19.57
2023-05-02T09:50:49.291Z,18.62
2023-05-02T09:52:10.577Z,18.77
2023-05-02T09:53:12.706Z,18.58
2023-05-02T09:54:33.785Z,18.31
2023-05-02T09:55:36.330Z,17.91
2023-05-02T09:56:57.322Z,17.57
2023-05-02T09:58:00.888Z,16.98
2023-05-02T09:59:13.946Z,16.21
2023-05-02T10:00:19.455Z,15.58
2023-05-02T10:01:21.759Z,15.41
2023-05-02T10:02:25.389Z,15.09
2023-05-02T10:03:28.798Z,14.58
2023-05-02T10:04:32.655Z,14.39
2023-05-02T10:05:39.393Z,14.07
2023-05-02T10:06:43.764Z,13.89
2023-05-02T10:07:46.777Z,13.73
2023-05-02T10:08:49.576Z,13.77
2023-05-02T10:09:57.030Z,14.19
2023-05-02T10:11:00.685Z,14.08
2023-05-02T10:12:05.170Z,13.89
2023-05-02T10:13:09.212Z,14.08
2023-05-02T10:14:12.546Z,14.11
2023-05-02T10:15:16.958Z,14.17
2023-05-02T10:16:28.971Z,14.20
2023-05-02T10:17:33.662Z,14.43
2023-05-02T10:18:51.776Z,15.46
2023-05-02T10:20:08.369Z,15.91
2023-05-02T10:21:12.492Z,16.32
2023-05-02T10:22:18.232Z,16.04
2023-05-02T10:23:21.427Z,17.00
2023-05-02T10:24:24.474Z,17.57
2023-05-02T10:25:27.162Z,18.87
2023-05-02T10:26:29.333Z,20.09
2023-05-02T10:27:32.607Z,20.30
2023-05-02T10:28:36.125Z,19.98
2023-05-02T10:29:41.091Z,19.49
2023-05-02T10:30:43.926Z,19.44
2023-05-02T10:31:47.236Z,19.05
2023-05-02T10:32:51.349Z,18.87
2023-05-02T10:33:55.967Z,18.56
2023-05-02T10:35:03.789Z,18.07
2023-05-02T10:36:09.570Z,16.95
2023-05-02T10:37:12.509Z,16.19
2023-05-02T10:38:24.123Z,15.57
2023-05-02T10:39:27.702Z,15.06
2023-05-02T10:40:31.231Z,14.80
2023-05-02T10:41:35.419Z,14.50
2023-05-02T10:42:40.205Z,14.40
2023-05-02T10:43:48.075Z,13.85
2023-05-02T10:44:51.137Z,13.67
2023-05-02T10:45:54.895Z,13.89
2023-05-02T10:46:57.836Z,13.45
2023-05-02T10:48:19.851Z,13.80
2023-05-02T10:49:24.934Z,13.86
2023-05-02T10:50:43.055Z,14.12
2023-05-02T10:51:45.380Z,13.86
2023-05-02T10:52:47.581Z,13.88
2023-05-02T10:53:50.531Z,13.74
2023-05-02T10:54:52.764Z,13.89
2023-05-02T10:56:15.417Z,13.89
2023-05-02T10:57:17.630Z,13.86
2023-05-02T10:58:22.750Z,14.15
2023-05-02T10:59:39.051Z,13.90
2023-05-02T11:00:41.289Z,13.83
2023-05-02T11:01:43.468Z,13.83
2023-05-02T11:02:45.916Z,13.90
2023-05-02T11:03:59.386Z,14.09
2023-05-02T11:05:03.096Z,13.85
2023-05-02T11:06:09.642Z,13.72
2023-05-02T11:07:14.614Z,13.73
2023-05-02T11:08:19.450Z,13.32
2023-05-02T11:09:22.462Z,13.31
2023-05-02T11:10:26.400Z,12.85
2023-05-02T11:11:52.534Z,12.59
2023-05-02T11:12:57.370Z,12.38
2023-05-02T11:13:59.583Z,12.45
2023-05-02T11:15:02.776Z,12.50
2023-05-02T11:16:05.114Z,12.49
2023-05-02T11:17:08.819Z,12.74
2023-05-02T11:18:13.059Z,12.70
2023-05-02T11:19:16.198Z,12.66
2023-05-02T11:20:19.508Z,12.84
2023-05-02T11:21:28.655Z,12.97
2023-05-02T11:22:31.394Z,12.97
2023-05-02T11:23:36.828Z,13.02
2023-05-02T11:24:44.551Z,13.11
2023-05-02T11:25:51.234Z,13.31
2023-05-02T11:26:55.194Z,13.33
2023-05-02T11:27:57.839Z,13.60
2023-05-02T11:29:00.157Z,13.74
2023-05-02T11:30:09.626Z,14.37
2023-05-02T11:31:35.368Z,14.35
2023-05-02T11:32:50.099Z,14.77
2023-05-02T11:33:57.115Z,15.01
2023-05-02T11:34:59.924Z,14.91
2023-05-02T11:36:02.730Z,14.92
2023-05-02T11:37:15.609Z,14.71
2023-05-02T11:38:19.834Z,14.54
2023-05-02T11:39:22.934Z,14.46
2023-05-02T11:40:27.125Z,14.64
2023-05-02T11:41:42.405Z,14.82
2023-05-02T11:42:44.539Z,14.46
2023-05-02T11:43:46.653Z,14.01
2023-05-02T11:44:59.660Z,13.81
2023-05-02T11:46:02.538Z,13.73
2023-05-02T11:47:05.054Z,13.55
2023-05-02T11:48:08.241Z,13.73
2023-05-02T11:49:14.783Z,13.78
2023-05-02T11:50:18.247Z,14.00
2023-05-02T11:51:23.254Z,14.27
2023-05-02T11:52:25.820Z,14.19
2023-05-02T11:53:29.464Z,14.33
2023-05-02T11:54:32.264Z,14.50
2023-05-02T11:55:35.395Z,14.62
2023-05-02T11:56:37.692Z,14.80
2023-05-02T11:57:40.158Z,14.97
2023-05-02T11:58:44.039Z,15.14
2023-05-02T11:59:53.371Z,15.37
2023-05-02T12:00:57.053Z,15.63
2023-05-02T12:01:59.308Z,15.91
2023-05-02T12:03:01.512Z,15.77
2023-05-02T12:04:04.593Z,15.42
2023-05-02T12:05:14.252Z,14.84
2023-05-02T12:06:19.420Z,14.90
2023-05-02T12:07:34.981Z,14.86
2023-05-02T12:08:37.496Z,14.95
2023-05-02T12:09:53.012Z,14.64
2023-05-02T12:10:56.813Z,14.51
2023-05-02T12:11:59.193Z,14.49
2023-05-02T12:13:05.052Z,14.61
2023-05-02T12:14:07.262Z,14.57
2023-05-02T12:15:11.629Z,14.29
2023-05-02T12:16:14.200Z,14.15
2023-05-02T12:17:17.155Z,14.09
2023-05-02T12:18:23.822Z,13.76
2023-05-02T12:19:27.170Z,13.40
2023-05-02T12:20:29.520Z,13.20
2023-05-02T12:21:33.390Z,12.85
2023-05-02T12:22:36.192Z,12.80
2023-05-02T12:23:39.990Z,12.70
2023-05-02T12:24:43.511Z,12.67
2023-05-02T12:25:45.980Z,12.57
2023-05-02T12:26:48.815Z,12.33
2023-05-02T12:28:02.314Z,12.42
2023-05-02T12:29:06.586Z,12.39
2023-05-02T12:30:09.186Z,12.34
2023-05-02T12:31:11.560Z,12.46
2023-05-02T12:32:16.571Z,12.52
2023-05-02T12:33:19.118Z,12.56
2023-05-02T12:34:34.645Z,12.64
2023-05-02T12:35:36.860Z,12.75
2023-05-02T12:36:45.323Z,12.98
2023-05-02T12:37:47.497Z,12.72
2023-05-02T12:38:57.002Z,12.94
2023-05-02T12:39:59.577Z,12.86
2023-05-02T12:41:02.048Z,13.07
2023-05-02T12:42:14.032Z,13.26
2023-05-02T12:43:16.556Z,13.17
2023-05-02T12:44:36.395Z,13.21
2023-05-02T12:45:38.689Z,13.24
2023-05-02T12:46:58.430Z,13.70
2023-05-02T12:48:02.151Z,13.63
2023-05-02T12:49:09.731Z,14.04
2023-05-02T12:50:12.269Z,14.19
2023-05-02T12:51:28.542Z,14.49
2023-05-02T12:52:51.579Z,14.82
2023-05-02T12:53:53.713Z,14.86
2023-05-02T12:55:18.308Z,15.27
2023-05-02T12:56:21.046Z,15.12
2023-05-02T12:57:24.923Z,15.27
2023-05-02T12:58:28.530Z,15.19
2023-05-02T12:59:32.302Z,15.43
2023-05-02T13:00:37.842Z,15.44
2023-05-02T13:01:40.208Z,15.40
2023-05-02T13:02:42.627Z,15.47
2023-05-02T13:03:44.959Z,15.39
2023-05-02T13:04:47.325Z,15.00
2023-05-02T13:05:54.234Z,14.73
2023-05-02T13:06:56.548Z,14.27
2023-05-02T13:07:59.412Z,14.06
2023-05-02T13:09:01.836Z,13.97
2023-05-02T13:10:04.472Z,13.97
2023-05-02T13:11:06.772Z,13.61
2023-05-02T13:12:09.297Z,13.59
2023-05-02T13:13:11.621Z,13.48
2023-05-02T13:14:13.842Z,13.51
2023-05-02T13:15:16.215Z,13.55
2023-05-02T13:16:18.812Z,13.38
2023-05-02T13:17:21.730Z,13.30
2023-05-02T13:18:24.160Z,13.26
2023-05-02T13:19:29.223Z,13.27
2023-05-02T13:20:31.362Z,13.34
2023-05-02T13:21:33.663Z,13.19
2023-05-02T13:22:37.289Z,13.18
2023-05-02T13:23:41.063Z,13.11
2023-05-02T13:24:45.028Z,13.13
2023-05-02T13:25:47.816Z,13.07
2023-05-02T13:26:50.104Z,13.04
2023-05-02T13:27:52.268Z,13.08
2023-05-02T13:28:54.454Z,13.11
2023-05-02T13:29:56.966Z,13.01
2023-05-02T13:30:59.214Z,13.03
2023-05-02T13:32:01.423Z,12.99
2023-05-02T13:33:03.742Z,12.97
2023-05-02T13:34:06.080Z,13.12
2023-05-02T13:35:09.149Z,13.15
2023-05-02T13:36:11.408Z,13.10
2023-05-02T13:37:13.653Z,12.98
2023-05-02T13:38:15.780Z,13.22
2023-05-02T13:39:18.121Z,13.17
2023-05-02T13:40:20.832Z,13.22
2023-05-02T13:41:24.550Z,13.42
2023-05-02T13:42:26.872Z,13.41
2023-05-02T13:43:29.027Z,13.28
2023-05-02T13:44:31.534Z,13.31
2023-05-02T13:45:33.827Z,13.24
2023-05-02T13:46:37.886Z,13.36
2023-05-02T13:47:41.548Z,13.21
2023-05-02T13:48:43.947Z,13.35
2023-05-02T13:49:46.127Z,13.15
2023-05-02T13:50:48.276Z,13.21
2023-05-02T13:51:50.530Z,13.19
2023-05-02T13:52:52.755Z,13.20
2023-05-02T13:53:55.608Z,13.05
2023-05-02T13:54:57.802Z,13.01
2023-05-02T13:55:59.975Z,13.16
2023-05-02T13:57:02.669Z,13.41
2023-05-02T13:58:04.881Z,13.38
2023-05-02T13:59:08.279Z,13.43
2023-05-02T14:00:12.055Z,13.58
2023-05-02T14:01:14.184Z,13.64
2023-05-02T14:02:16.726Z,13.68
2023-05-02T14:03:19.581Z,13.89
2023-05-02T14:04:23.466Z,13.87
2023-05-02T14:05:26.150Z,14.03
2023-05-02T14:06:28.334Z,14.16